Time;durP1;ratioP1;P1;durP2;ratioP2;P2;SDS_P1;SDS_P2;PMS_P1;PMS_P2;Temp;Humidity;BMP_temperature;BMP_pressure;BME280_temperature;BME280_humidity;BME280_pressure;Samples;Min_cycle;Max_cycle;Signal;HPM_P1;HPM_P2
2023/05/22 00:01:18;;;;;;;26.23;20.88;;;18.20;99.90;;;;;;5013653;28;20499;-86
2023/05/22 00:03:44;;;;;;;23.48;20.58;;;18.20;99.90;;;;;;5018917;28;20076;-86
2023/05/22 00:06:10;;;;;;;22.40;18.65;;;18.10;99.90;;;;;;5015177;28;20041;-89
2023/05/22 00:08:36;;;;;;;21.83;18.65;;;18.10;99.90;;;;;;5025885;28;20121;-88
2023/05/22 00:11:02;;;;;;;24.52;19.23;;;18.20;99.90;;;;;;5015241;28;20073;-88
2023/05/22 00:13:28;;;;;;;23.10;19.13;;;18.20;99.90;;;;;;5027347;28;20029;-89
2023/05/22 00:15:54;;;;;;;22.98;19.02;;;18.20;99.90;;;;;;5034574;28;20058;-89
2023/05/22 00:18:20;;;;;;;24.25;20.05;;;18.20;99.90;;;;;;5008159;28;20485;-89
2023/05/22 00:20:47;;;;;;;25.30;20.35;;;18.20;99.90;;;;;;5014560;28;20041;-90
2023/05/22 00:23:13;;;;;;;23.85;20.30;;;18.20;99.90;;;;;;4999529;28;20063;-87
2023/05/22 00:25:39;;;;;;;22.85;17.35;;;18.20;99.90;;;;;;5028368;28;20030;-90
2023/05/22 00:28:05;;;;;;;25.33;20.15;;;18.20;99.90;;;;;;5024545;28;20521;-89
2023/05/22 00:30:32;;;;;;;20.00;17.52;;;18.20;99.90;;;;;;5016188;28;20045;-89
2023/05/22 00:32:58;;;;;;;22.00;18.30;;;18.20;99.90;;;;;;5013896;28;20505;-88
2023/05/22 00:35:23;;;;;;;20.02;16.45;;;18.20;99.90;;;;;;5018166;28;20045;-87
2023/05/22 00:37:49;;;;;;;22.15;17.17;;;18.30;99.90;;;;;;5034479;28;20042;-87
2023/05/22 00:40:15;;;;;;;22.35;17.52;;;18.30;99.90;;;;;;5015028;28;20033;-88
2023/05/22 00:42:44;;;;;;;22.00;16.58;;;18.30;99.90;;;;;;5026577;28;20045;-89
2023/05/22 00:45:13;;;;;;;24.48;19.63;;;18.30;99.90;;;;;;5022544;28;20042;-89
2023/05/22 00:47:39;;;;;;;27.20;22.60;;;18.30;99.90;;;;;;5012056;28;20066;-89
2023/05/22 00:50:06;;;;;;;25.80;20.42;;;18.30;99.90;;;;;;5008758;28;20041;-88
2023/05/22 00:52:39;;;;;;;24.92;21.08;;;18.30;99.90;;;;;;5030605;28;20030;-88
2023/05/22 00:55:05;;;;;;;24.98;20.63;;;18.20;99.90;;;;;;5016121;28;20124;-88
2023/05/22 00:57:32;;;;;;;21.10;18.00;;;18.10;99.90;;;;;;5017558;28;20038;-88
2023/05/22 01:00:00;;;;;;;25.77;20.73;;;18.10;99.90;;;;;;5018238;28;20495;-88
2023/05/22 01:02:27;;;;;;;27.40;22.30;;;18.10;99.90;;;;;;5014576;28;20041;-87
2023/05/22 01:04:56;;;;;;;23.95;20.90;;;18.10;99.90;;;;;;5028270;28;20072;-86
2023/05/22 01:07:22;;;;;;;26.10;22.02;;;18.10;99.90;;;;;;5008011;28;20056;-86
2023/05/22 01:09:48;;;;;;;23.52;18.80;;;18.10;99.90;;;;;;5023515;28;20092;-87
2023/05/22 01:12:31;;;;;;;21.95;18.65;;;18.10;99.90;;;;;;4998067;28;20037;-88
2023/05/22 01:15:12;;;;;;;26.92;21.30;;;18.10;99.90;;;;;;5008319;28;20100;-88
2023/05/22 01:17:54;;;;;;;24.77;20.33;;;18.10;99.90;;;;;;4991677;28;20069;-89
2023/05/22 01:20:35;;;;;;;26.23;20.42;;;18.10;99.90;;;;;;5025636;28;20092;-88
2023/05/22 01:23:31;;;;;;;22.55;18.77;;;18.00;99.90;;;;;;5008061;28;20030;-89
2023/05/22 01:26:03;;;;;;;24.60;18.88;;;18.00;99.90;;;;;;5010188;28;20242;-87
2023/05/22 01:29:02;;;;;;;26.98;20.33;;;18.10;99.90;;;;;;5011473;28;20046;-88
2023/05/22 01:31:30;;;;;;;24.25;20.05;;;18.00;99.90;;;;;;4946288;28;20039;-87
2023/05/22 01:33:59;;;;;;;22.45;19.92;;;18.00;99.90;;;;;;4917847;29;20070;-88
2023/05/22 01:36:34;;;;;;;23.25;17.90;;;18.00;99.90;;;;;;4925755;29;20079;-86
2023/05/22 01:39:05;;;;;;;22.15;19.13;;;18.00;99.90;;;;;;4936319;29;20112;-88
2023/05/22 01:41:34;;;;;;;23.58;19.65;;;18.00;99.90;;;;;;4929477;29;20502;-89
2023/05/22 01:44:01;;;;;;;24.92;19.67;;;17.90;99.90;;;;;;4935548;29;20039;-88
2023/05/22 01:46:28;;;;;;;21.15;17.63;;;17.90;99.90;;;;;;4934181;29;20086;-88
2023/05/22 01:48:53;;;;;;;19.58;16.70;;;17.80;99.90;;;;;;4938833;29;20044;-88
2023/05/22 01:51:31;;;;;;;23.77;20.45;;;17.80;99.90;;;;;;4945597;29;20054;-87
2023/05/22 01:54:19;;;;;;;19.55;17.08;;;17.80;99.90;;;;;;4930467;29;20051;-88
2023/05/22 01:56:49;;;;;;;18.73;15.40;;;17.80;99.90;;;;;;4947527;29;20042;-88
2023/05/22 01:59:37;;;;;;;25.00;21.52;;;17.80;99.90;;;;;;4936810;29;20062;-87
2023/05/22 02:02:06;;;;;;;20.02;16.35;;;17.80;99.90;;;;;;4947307;28;20091;-86
2023/05/22 02:04:36;;;;;;;24.08;20.63;;;17.80;99.90;;;;;;4931778;29;20050;-87
2023/05/22 02:07:03;;;;;;;25.80;21.50;;;17.80;99.90;;;;;;4972871;28;20041;-87
2023/05/22 02:09:30;;;;;;;23.88;21.00;;;17.80;99.90;;;;;;5002665;28;20069;-89
2023/05/22 02:11:59;;;;;;;28.73;22.73;;;17.80;99.90;;;;;;5002292;28;20097;-88
2023/05/22 02:14:26;;;;;;;24.60;21.40;;;17.80;99.90;;;;;;5018569;28;20056;-88
2023/05/22 02:16:52;;;;;;;21.10;17.40;;;17.80;99.90;;;;;;5022822;28;20038;-88
2023/05/22 02:19:18;;;;;;;20.98;17.33;;;17.80;99.90;;;;;;5000969;28;20105;-88
2023/05/22 02:21:44;;;;;;;26.33;21.80;;;17.80;99.90;;;;;;5018834;28;20488;-87
2023/05/22 02:24:10;;;;;;;26.50;22.48;;;17.80;99.90;;;;;;5023954;28;20523;-88
2023/05/22 02:26:36;;;;;;;29.17;22.58;;;17.80;99.90;;;;;;5024300;28;20072;-89
2023/05/22 02:29:02;;;;;;;26.55;23.38;;;17.80;99.90;;;;;;5017311;28;20064;-89
2023/05/22 02:31:29;;;;;;;25.83;20.33;;;17.80;99.90;;;;;;5024627;28;20053;-88
2023/05/22 02:33:55;;;;;;;28.60;22.80;;;17.80;99.90;;;;;;5033535;28;20066;-88
2023/05/22 02:36:22;;;;;;;19.35;17.17;;;17.80;99.90;;;;;;5001015;28;20041;-88
2023/05/22 02:38:48;;;;;;;27.17;22.80;;;17.70;99.90;;;;;;5031732;28;20038;-89
2023/05/22 02:41:14;;;;;;;29.98;25.17;;;17.80;99.90;;;;;;5012528;28;20045;-89
2023/05/22 02:43:40;;;;;;;25.05;21.65;;;17.70;99.90;;;;;;5012600;28;20049;-90
2023/05/22 02:46:05;;;;;;;25.75;21.58;;;17.70;99.90;;;;;;5025852;28;20046;-88
2023/05/22 02:48:31;;;;;;;23.13;19.00;;;17.70;99.90;;;;;;5009543;28;20049;-88
2023/05/22 02:50:57;;;;;;;27.10;23.38;;;17.70;99.90;;;;;;5011260;28;20393;-87
2023/05/22 02:53:23;;;;;;;26.13;23.30;;;17.70;99.90;;;;;;5006817;28;20119;-85
2023/05/22 02:55:48;;;;;;;27.27;23.70;;;17.60;99.90;;;;;;4989050;28;20041;-86
2023/05/22 02:58:14;;;;;;;20.73;17.50;;;17.60;99.90;;;;;;5008676;28;20041;-88
2023/05/22 03:00:40;;;;;;;28.98;23.98;;;17.60;99.90;;;;;;4983935;28;20045;-87
2023/05/22 03:03:06;;;;;;;26.73;22.08;;;17.60;99.90;;;;;;5005952;28;20049;-87
2023/05/22 03:05:35;;;;;;;25.48;22.30;;;17.60;99.90;;;;;;5015802;28;20131;-88
2023/05/22 03:08:01;;;;;;;26.63;20.85;;;17.60;99.90;;;;;;5019972;28;20068;-87
2023/05/22 03:10:26;;;;;;;19.35;17.13;;;17.60;99.90;;;;;;5006612;28;20065;-88
2023/05/22 03:12:52;;;;;;;25.00;20.42;;;17.60;99.90;;;;;;5028980;28;20037;-86
2023/05/22 03:15:18;;;;;;;25.95;22.17;;;17.60;99.90;;;;;;5009612;28;20092;-87
2023/05/22 03:17:44;;;;;;;23.02;18.77;;;17.60;99.90;;;;;;5016944;28;20037;-88
2023/05/22 03:20:15;;;;;;;23.10;19.48;;;17.60;99.90;;;;;;5018129;28;20053;-87
2023/05/22 03:22:46;;;;;;;29.73;23.60;;;17.60;99.90;;;;;;5026087;28;20033;-88
2023/05/22 03:25:12;;;;;;;17.98;15.50;;;17.60;99.90;;;;;;5024563;28;20034;-86
2023/05/22 03:27:39;;;;;;;26.58;22.15;;;17.60;99.90;;;;;;5005657;28;20048;-87
2023/05/22 03:30:06;;;;;;;25.45;20.30;;;17.60;99.90;;;;;;5013655;28;20037;-87
2023/05/22 03:32:36;;;;;;;24.27;20.90;;;17.50;99.90;;;;;;5020722;28;20419;-87
2023/05/22 03:35:03;;;;;;;27.67;22.15;;;17.50;99.90;;;;;;5034504;28;20041;-89
2023/05/22 03:37:31;;;;;;;24.13;20.13;;;17.50;99.90;;;;;;5013945;28;20046;-88
2023/05/22 03:39:57;;;;;;;20.55;17.52;;;17.50;99.90;;;;;;5003195;28;20049;-88
2023/05/22 03:42:23;;;;;;;21.52;19.10;;;17.50;99.90;;;;;;4999280;28;20393;-87
2023/05/22 03:44:49;;;;;;;20.35;18.17;;;17.50;99.90;;;;;;5005602;28;20092;-88
2023/05/22 03:47:15;;;;;;;27.20;23.05;;;17.50;99.90;;;;;;5033511;28;20037;-88
2023/05/22 03:49:40;;;;;;;22.85;19.02;;;17.50;99.90;;;;;;5016536;28;20048;-88
2023/05/22 03:52:09;;;;;;;28.00;22.17;;;17.50;99.90;;;;;;5014272;28;20077;-87
2023/05/22 03:54:34;;;;;;;24.35;20.33;;;17.50;99.90;;;;;;5009903;28;20045;-87
2023/05/22 03:57:00;;;;;;;28.65;25.23;;;17.40;99.90;;;;;;5006942;28;20046;-87
2023/05/22 03:59:26;;;;;;;24.60;20.83;;;17.40;99.90;;;;;;5014000;28;20041;-88
2023/05/22 04:01:52;;;;;;;29.48;24.45;;;17.40;99.90;;;;;;5028001;28;20053;-88
2023/05/22 04:04:18;;;;;;;29.80;24.98;;;17.40;99.90;;;;;;5009346;28;20096;-88
2023/05/22 04:06:43;;;;;;;28.52;21.23;;;17.40;99.90;;;;;;5024624;28;20322;-88
2023/05/22 04:09:10;;;;;;;27.42;21.30;;;17.30;99.90;;;;;;5023655;28;20076;-87
2023/05/22 04:11:41;;;;;;;26.20;22.50;;;17.30;99.90;;;;;;5019934;28;20056;-87
2023/05/22 04:14:07;;;;;;;25.65;20.58;;;17.30;99.90;;;;;;5023565;28;20238;-87
2023/05/22 04:16:33;;;;;;;24.30;21.15;;;17.30;99.90;;;;;;4990283;28;20058;-88
2023/05/22 04:19:02;;;;;;;19.27;16.52;;;17.30;99.90;;;;;;5025770;28;20141;-86
2023/05/22 04:21:34;;;;;;;23.02;18.27;;;17.30;99.90;;;;;;5017266;28;20042;-88
2023/05/22 04:24:01;;;;;;;22.50;18.27;;;17.30;99.90;;;;;;5011910;28;20089;-88
2023/05/22 04:26:30;;;;;;;25.05;21.55;;;17.40;99.90;;;;;;4988745;28;20037;-88
2023/05/22 04:28:56;;;;;;;24.70;20.63;;;17.40;99.90;;;;;;5014752;28;20037;-86
2023/05/22 04:31:22;;;;;;;24.20;20.42;;;17.40;99.90;;;;;;5005570;28;20129;-88
2023/05/22 04:34:01;;;;;;;28.13;21.38;;;17.40;99.90;;;;;;5013286;28;20057;-88
2023/05/22 04:36:28;;;;;;;25.95;21.38;;;17.40;99.90;;;;;;4992915;28;20029;-88
2023/05/22 04:38:54;;;;;;;29.30;23.70;;;17.40;99.90;;;;;;5015125;28;20041;-88
2023/05/22 04:41:25;;;;;;;25.33;20.60;;;17.40;99.90;;;;;;4993667;28;20124;-86
2023/05/22 04:43:52;;;;;;;25.48;21.38;;;17.40;99.90;;;;;;5000778;28;20065;-87
2023/05/22 04:46:19;;;;;;;24.70;20.30;;;17.40;99.90;;;;;;5025990;28;20045;-89
2023/05/22 04:48:48;;;;;;;22.85;19.73;;;17.30;99.90;;;;;;4994849;28;20037;-89
2023/05/22 04:51:14;;;;;;;25.48;22.33;;;17.40;99.90;;;;;;5000238;28;20048;-89
2023/05/22 04:53:40;;;;;;;24.88;20.33;;;17.40;99.90;;;;;;5015465;28;20037;-89
2023/05/22 04:56:06;;;;;;;24.33;20.42;;;17.40;99.90;;;;;;5017968;28;20512;-90
2023/05/22 04:58:32;;;;;;;25.73;21.38;;;17.40;99.90;;;;;;5031321;28;20029;-89
2023/05/22 05:00:58;;;;;;;30.75;24.30;;;17.40;99.90;;;;;;5007233;28;20036;-89
2023/05/22 05:03:27;;;;;;;26.17;21.40;;;17.30;99.90;;;;;;5027498;28;20037;-88
2023/05/22 05:05:53;;;;;;;26.92;23.85;;;17.30;99.90;;;;;;5013528;28;20036;-88
2023/05/22 05:08:19;;;;;;;28.13;22.27;;;17.30;99.90;;;;;;5032138;28;20041;-89
2023/05/22 05:10:45;;;;;;;29.80;22.92;;;17.30;99.90;;;;;;5020307;28;20026;-88
2023/05/22 05:13:11;;;;;;;29.88;21.88;;;17.30;99.90;;;;;;5028727;28;20091;-89
2023/05/22 05:15:36;;;;;;;29.75;23.02;;;17.30;99.90;;;;;;5032738;28;20120;-88
2023/05/22 05:18:02;;;;;;;32.30;27.08;;;17.30;99.90;;;;;;5033318;28;20033;-89
2023/05/22 05:20:29;;;;;;;26.63;23.13;;;17.30;99.90;;;;;;5028942;28;20061;-94
2023/05/22 05:22:55;;;;;;;33.63;26.50;;;17.30;99.90;;;;;;5031257;28;20464;-92
2023/05/22 05:25:20;;;;;;;26.27;21.15;;;17.30;99.90;;;;;;5033651;28;20040;-92
2023/05/22 05:27:46;;;;;;;31.42;25.48;;;17.30;99.90;;;;;;5008781;28;20044;-93
2023/05/22 05:30:12;;;;;;;32.08;25.38;;;17.20;99.90;;;;;;5034442;28;20045;-92
2023/05/22 05:32:38;;;;;;;34.88;27.05;;;17.20;99.90;;;;;;5012276;28;20033;-92
2023/05/22 05:35:04;;;;;;;23.33;20.33;;;17.20;99.90;;;;;;5032104;28;20127;-87
2023/05/22 05:37:29;;;;;;;28.65;22.83;;;17.20;99.90;;;;;;5024852;28;20077;-87
2023/05/22 05:39:55;;;;;;;24.98;19.98;;;17.30;99.90;;;;;;5006733;28;20088;-88
2023/05/22 05:42:20;;;;;;;28.73;23.25;;;17.30;99.90;;;;;;5013693;28;20049;-88
2023/05/22 05:44:46;;;;;;;21.50;18.77;;;17.30;99.90;;;;;;5009784;28;20047;-86
2023/05/22 05:47:12;;;;;;;28.35;21.90;;;17.30;99.90;;;;;;5014062;28;20113;-89
2023/05/22 05:49:38;;;;;;;26.95;20.48;;;17.30;99.90;;;;;;5010236;28;20049;-88
2023/05/22 05:52:04;;;;;;;26.10;20.63;;;17.30;99.90;;;;;;5028445;28;20034;-90
2023/05/22 05:54:32;;;;;;;23.70;18.38;;;17.30;99.90;;;;;;5011876;28;20108;-90
2023/05/22 05:56:58;;;;;;;21.23;18.45;;;17.20;99.90;;;;;;5028367;28;20034;-89
2023/05/22 05:59:24;;;;;;;23.23;19.08;;;17.30;99.90;;;;;;5028644;28;20037;-91
2023/05/22 06:01:50;;;;;;;21.45;18.52;;;17.30;99.90;;;;;;5025241;28;20504;-91
2023/05/22 06:04:16;;;;;;;23.23;17.85;;;17.30;99.90;;;;;;5009341;28;20038;-87
2023/05/22 06:06:43;;;;;;;26.17;19.60;;;17.30;99.90;;;;;;5011204;28;20049;-91
2023/05/22 06:09:09;;;;;;;30.33;21.02;;;17.30;99.90;;;;;;5034443;28;20056;-92
2023/05/22 06:11:35;;;;;;;25.55;19.65;;;17.30;99.90;;;;;;5008352;28;20073;-91
2023/05/22 06:14:02;;;;;;;23.75;17.13;;;17.30;99.90;;;;;;5016376;28;20052;-90
2023/05/22 06:16:28;;;;;;;22.20;18.23;;;17.40;99.90;;;;;;5015744;28;20479;-92
2023/05/22 06:18:55;;;;;;;22.30;17.63;;;17.30;99.90;;;;;;5029344;28;20049;-93
2023/05/22 06:21:21;;;;;;;21.15;17.73;;;17.40;99.90;;;;;;5030845;28;20093;-92
2023/05/22 06:23:48;;;;;;;23.50;18.13;;;17.30;99.90;;;;;;5034165;28;20033;-92
2023/05/22 06:26:15;;;;;;;21.38;16.42;;;17.30;99.90;;;;;;5028510;28;20041;-93
2023/05/22 06:28:41;;;;;;;21.40;16.83;;;17.30;99.90;;;;;;5004070;28;20093;-93
2023/05/22 06:31:08;;;;;;;23.02;16.98;;;17.30;99.90;;;;;;5028976;28;20077;-93
2023/05/22 06:33:35;;;;;;;21.67;17.52;;;17.40;99.90;;;;;;5027373;28;20042;-92
2023/05/22 06:36:02;;;;;;;22.63;15.80;;;17.30;99.90;;;;;;5011916;28;20053;-93
2023/05/22 06:38:28;;;;;;;20.92;16.77;;;17.30;99.90;;;;;;5031173;28;20606;-92
2023/05/22 06:40:54;;;;;;;21.75;16.58;;;17.30;99.90;;;;;;5027517;28;20062;-93
2023/05/22 06:43:20;;;;;;;20.65;15.88;;;17.30;99.90;;;;;;5009606;28;20358;-92
2023/05/22 06:45:45;;;;;;;19.95;16.00;;;17.40;99.90;;;;;;5029861;28;20110;-92
2023/05/22 06:48:11;;;;;;;21.55;17.00;;;17.40;99.90;;;;;;5015197;28;20042;-93
2023/05/22 06:50:37;;;;;;;22.23;16.10;;;17.40;99.90;;;;;;5029724;28;20057;-93
2023/05/22 06:53:02;;;;;;;21.67;16.92;;;17.40;99.90;;;;;;5019843;28;20044;-91
2023/05/22 06:55:28;;;;;;;18.77;15.15;;;17.30;99.90;;;;;;5017263;28;20068;-92
2023/05/22 06:57:54;;;;;;;26.00;17.13;;;17.40;99.90;;;;;;5022645;28;20119;-93
2023/05/22 07:00:19;;;;;;;24.02;16.17;;;17.40;99.90;;;;;;5015923;28;20492;-92
2023/05/22 07:02:45;;;;;;;19.40;14.23;;;17.40;99.90;;;;;;5017855;28;20042;-93
2023/05/22 07:05:11;;;;;;;19.88;15.93;;;17.30;99.90;;;;;;5005750;28;20045;-93
2023/05/22 07:07:36;;;;;;;24.67;14.90;;;17.30;99.90;;;;;;5018391;28;20033;-94
2023/05/22 07:10:02;;;;;;;19.08;14.88;;;17.30;99.90;;;;;;5036552;28;20040;-92
2023/05/22 07:12:28;;;;;;;21.70;14.75;;;17.30;99.90;;;;;;5013859;28;20085;-93
2023/05/22 07:14:55;;;;;;;22.20;14.63;;;17.30;99.90;;;;;;5038004;28;20054;-93
2023/05/22 07:17:21;;;;;;;19.48;14.23;;;17.30;99.90;;;;;;4999801;28;20045;-94
2023/05/22 07:19:47;;;;;;;22.30;13.60;;;17.30;99.90;;;;;;5015410;28;20040;-91
2023/05/22 07:22:14;;;;;;;18.52;13.05;;;17.30;99.90;;;;;;5038759;28;20038;-92
2023/05/22 07:24:39;;;;;;;20.80;12.68;;;17.30;99.90;;;;;;5034738;28;20051;-92
2023/05/22 07:27:05;;;;;;;20.90;12.00;;;17.30;99.90;;;;;;5035058;28;20113;-93
2023/05/22 07:29:31;;;;;;;16.42;11.93;;;17.30;99.90;;;;;;5028326;28;20038;-93
2023/05/22 07:31:57;;;;;;;18.75;12.00;;;17.30;99.90;;;;;;5018154;28;20041;-92
2023/05/22 07:34:28;;;;;;;21.63;12.05;;;17.30;99.90;;;;;;5032385;28;20042;-92
2023/05/22 07:36:54;;;;;;;19.63;11.52;;;17.40;99.90;;;;;;5037136;28;20111;-93
2023/05/22 07:39:20;;;;;;;17.02;11.43;;;17.30;99.90;;;;;;5041212;28;20551;-94
2023/05/22 07:41:52;;;;;;;17.95;10.63;;;17.30;99.90;;;;;;5018896;28;20095;-95
2023/05/22 07:44:18;;;;;;;24.75;9.88;;;17.30;99.90;;;;;;5014771;28;20125;-93
2023/05/22 07:46:44;;;;;;;19.73;10.40;;;17.30;99.90;;;;;;5019174;28;20053;-93
2023/05/22 07:49:09;;;;;;;16.73;10.00;;;17.20;99.90;;;;;;5040100;28;20419;-93
2023/05/22 07:51:35;;;;;;;19.08;10.63;;;17.20;99.90;;;;;;5032672;28;20034;-93
2023/05/22 07:54:01;;;;;;;21.77;10.60;;;17.20;99.90;;;;;;5034721;28;20447;-93
2023/05/22 07:56:26;;;;;;;25.35;10.40;;;17.20;99.90;;;;;;5015044;28;20040;-95
2023/05/22 07:58:53;;;;;;;17.30;9.52;;;17.20;99.90;;;;;;5020664;28;20037;-92
2023/05/22 08:01:18;;;;;;;19.20;9.82;;;17.20;99.90;;;;;;5001160;28;20511;-93
2023/05/22 08:03:44;;;;;;;24.15;9.88;;;17.30;99.90;;;;;;5035994;28;20155;-94
2023/05/22 08:06:11;;;;;;;23.00;11.00;;;17.30;99.90;;;;;;5025142;28;20105;-94
2023/05/22 08:08:36;;;;;;;20.30;10.45;;;17.30;99.90;;;;;;5039632;28;20041;-94
2023/05/22 08:11:02;;;;;;;23.88;10.38;;;17.30;99.90;;;;;;5019281;28;20041;-95
2023/05/22 08:13:28;;;;;;;25.45;11.02;;;17.30;99.90;;;;;;5002915;28;20152;-94
2023/05/22 08:15:54;;;;;;;21.58;10.60;;;17.30;99.90;;;;;;5011295;28;20488;-94
2023/05/22 08:18:21;;;;;;;23.30;10.93;;;17.40;99.90;;;;;;5014974;28;20084;-94
2023/05/22 08:20:52;;;;;;;26.17;10.30;;;17.30;99.90;;;;;;5014392;28;20374;-93
2023/05/22 08:23:18;;;;;;;20.85;10.73;;;17.40;99.90;;;;;;5012671;28;20101;-93
2023/05/22 08:25:43;;;;;;;18.77;9.13;;;17.40;99.90;;;;;;5017926;28;20069;-94
2023/05/22 08:28:09;;;;;;;27.48;10.05;;;17.30;99.90;;;;;;5003296;28;20042;-95
2023/05/22 08:30:36;;;;;;;22.25;9.45;;;17.30;99.90;;;;;;5012077;28;20038;-94
2023/05/22 08:33:01;;;;;;;17.83;9.13;;;17.30;99.90;;;;;;5016671;28;20037;-94
2023/05/22 08:35:27;;;;;;;24.38;10.88;;;17.30;99.90;;;;;;5007911;28;20070;-93
2023/05/22 08:37:53;;;;;;;16.77;9.90;;;17.30;99.90;;;;;;5031371;28;20056;-93
2023/05/22 08:40:19;;;;;;;19.10;9.95;;;17.30;99.90;;;;;;5012488;28;20054;-95
2023/05/22 08:42:46;;;;;;;24.30;10.75;;;17.20;99.90;;;;;;5002677;28;20539;-94
2023/05/22 08:45:14;;;;;;;19.13;10.50;;;17.20;99.90;;;;;;5009420;28;20050;-95
2023/05/22 08:47:43;;;;;;;20.02;10.43;;;17.20;99.90;;;;;;5011572;28;20093;-93
2023/05/22 08:50:09;;;;;;;16.90;9.98;;;17.20;99.90;;;;;;5013022;28;20101;-94
2023/05/22 08:52:51;;;;;;;18.42;9.68;;;17.20;99.90;;;;;;4999885;28;20053;-93
2023/05/22 08:55:18;;;;;;;23.00;11.40;;;17.30;99.90;;;;;;5007003;28;20084;-94
2023/05/22 08:57:44;;;;;;;29.25;11.82;;;17.30;99.90;;;;;;5012035;28;20041;-94
2023/05/22 09:00:11;;;;;;;22.05;10.93;;;17.30;99.90;;;;;;5013597;28;20080;-94
2023/05/22 09:02:38;;;;;;;20.98;10.75;;;17.30;99.90;;;;;;5017305;28;20262;-93
2023/05/22 09:05:08;;;;;;;18.73;11.32;;;17.30;99.90;;;;;;5020141;28;20046;-93
2023/05/22 09:07:34;;;;;;;22.65;11.77;;;17.30;99.90;;;;;;5005852;28;20124;-94
2023/05/22 09:10:03;;;;;;;24.55;11.18;;;17.30;99.90;;;;;;5015607;28;20038;-94
2023/05/22 09:12:31;;;;;;;20.13;10.77;;;17.30;99.90;;;;;;5006117;28;20047;-94
2023/05/22 09:15:08;;;;;;;20.52;10.52;;;17.30;99.90;;;;;;5014933;28;20046;-94
2023/05/22 09:17:34;;;;;;;23.15;12.05;;;17.30;99.90;;;;;;5031522;28;20045;-93
2023/05/22 09:20:00;;;;;;;25.60;11.13;;;17.30;99.90;;;;;;5017997;28;20048;-94
2023/05/22 09:22:38;;;;;;;19.77;10.82;;;17.30;99.90;;;;;;5038212;28;20037;-94
2023/05/22 09:25:04;;;;;;;23.20;11.30;;;17.40;99.90;;;;;;5012398;28;20065;-94
2023/05/22 09:27:30;;;;;;;20.48;11.05;;;17.50;99.90;;;;;;5030493;28;20507;-94
2023/05/22 09:29:56;;;;;;;20.30;11.38;;;17.60;99.90;;;;;;5021159;28;20037;-95
2023/05/22 09:32:23;;;;;;;24.65;11.57;;;17.60;99.90;;;;;;5026942;28;20029;-95
2023/05/22 09:34:49;;;;;;;21.98;11.80;;;17.80;99.90;;;;;;5033988;28;20045;-94
2023/05/22 09:37:16;;;;;;;24.17;12.43;;;18.00;99.90;;;;;;5029656;28;20052;-93
2023/05/22 09:39:46;;;;;;;22.17;11.60;;;18.20;99.90;;;;;;5035326;28;20040;-94
2023/05/22 09:42:15;;;;;;;24.73;12.10;;;18.40;99.90;;;;;;5012513;28;20496;-95
2023/05/22 09:44:43;;;;;;;24.55;12.88;;;18.60;99.90;;;;;;5020938;28;20041;-94
2023/05/22 09:47:08;;;;;;;21.55;11.30;;;18.90;99.90;;;;;;4997482;28;20073;-94
2023/05/22 09:49:42;;;;;;;20.52;11.40;;;19.10;99.90;;;;;;5013655;28;20038;-94
2023/05/22 09:52:11;;;;;;;19.60;11.57;;;19.30;99.90;;;;;;5025476;28;20593;-94
2023/05/22 09:54:55;;;;;;;23.15;11.18;;;19.50;99.90;;;;;;5030364;28;20112;-94
2023/05/22 09:57:25;;;;;;;20.17;10.75;;;19.60;99.90;;;;;;5029029;28;20049;-94
2023/05/22 09:59:53;;;;;;;22.98;11.77;;;19.80;99.90;;;;;;5022283;28;20061;-94
2023/05/22 10:02:23;;;;;;;21.38;12.88;;;19.90;99.90;;;;;;5025243;28;20037;-94
2023/05/22 10:04:50;;;;;;;24.33;12.80;;;20.10;99.90;;;;;;4996187;28;20045;-94
2023/05/22 10:07:22;;;;;;;18.35;12.40;;;20.20;99.90;;;;;;4998850;28;20065;-93
2023/05/22 10:09:55;;;;;;;21.15;11.88;;;20.30;99.90;;;;;;5018936;28;20057;-94
2023/05/22 10:12:24;;;;;;;21.40;12.73;;;20.50;99.90;;;;;;4987808;28;20041;-93
2023/05/22 10:14:50;;;;;;;19.95;10.45;;;20.60;99.90;;;;;;5012563;28;20116;-94
2023/05/22 10:17:17;;;;;;;21.85;13.07;;;20.80;99.90;;;;;;5015634;28;20106;-93
2023/05/22 10:19:43;;;;;;;19.73;12.27;;;20.90;99.90;;;;;;5030726;28;20076;-93
2023/05/22 10:22:13;;;;;;;19.58;11.38;;;21.10;99.90;;;;;;5014163;28;20061;-93
2023/05/22 10:24:40;;;;;;;19.63;12.05;;;21.10;99.90;;;;;;5027525;28;20041;-93
2023/05/22 10:27:05;;;;;;;24.15;11.70;;;21.10;99.90;;;;;;5016188;28;20068;-93
2023/05/22 10:29:39;;;;;;;20.00;12.60;;;21.20;99.90;;;;;;5016716;28;20101;-93
2023/05/22 10:32:32;;;;;;;17.02;10.57;;;21.10;99.90;;;;;;5025748;28;20034;-93
2023/05/22 10:35:06;;;;;;;19.25;11.93;;;21.10;99.90;;;;;;5030677;28;20093;-94
2023/05/22 10:37:52;;;;;;;25.20;13.50;;;21.10;99.90;;;;;;5011602;28;20093;-93
2023/05/22 10:40:27;;;;;;;18.05;12.82;;;21.10;99.90;;;;;;5014474;28;20120;-94
2023/05/22 10:43:01;;;;;;;19.58;12.98;;;21.30;99.90;;;;;;5030699;28;20064;-93
2023/05/22 10:45:28;;;;;;;20.63;12.95;;;21.40;99.90;;;;;;5032385;28;20053;-96
2023/05/22 10:48:05;;;;;;;20.58;13.05;;;21.60;99.90;;;;;;5019326;28;20101;-94
2023/05/22 10:50:31;;;;;;;15.95;10.48;;;21.70;99.90;;;;;;5017926;28;20041;-95
2023/05/22 10:53:21;;;;;;;15.80;11.85;;;21.80;99.90;;;;;;5032067;28;20042;-93
2023/05/22 10:55:48;;;;;;;18.83;11.98;;;21.90;99.90;;;;;;5008845;28;20068;-94
2023/05/22 10:58:24;;;;;;;21.00;13.10;;;21.90;99.90;;;;;;5029780;28;20057;-94
2023/05/22 11:01:11;;;;;;;22.92;13.18;;;22.10;99.90;;;;;;5036024;28;20045;-92
2023/05/22 11:03:57;;;;;;;21.20;13.43;;;22.20;99.90;;;;;;5014574;28;20118;-94
2023/05/22 11:06:47;;;;;;;24.08;12.15;;;22.30;99.90;;;;;;5005794;28;20042;-91
2023/05/22 11:09:25;;;;;;;16.65;12.15;;;22.40;99.90;;;;;;5013966;28;20065;-95
2023/05/22 11:12:16;;;;;;;20.48;12.50;;;22.40;99.90;;;;;;4999432;28;20312;-93
2023/05/22 11:14:48;;;;;;;18.45;12.27;;;22.50;99.90;;;;;;5038341;28;20049;-91
2023/05/22 11:17:18;;;;;;;19.33;12.23;;;22.70;99.90;;;;;;5016958;28;20037;-92
2023/05/22 11:19:55;;;;;;;19.70;11.73;;;22.80;99.90;;;;;;5034756;28;20037;-92
2023/05/22 11:22:21;;;;;;;21.90;12.32;;;22.90;99.90;;;;;;5029532;28;20037;-91
2023/05/22 11:24:47;;;;;;;18.70;11.40;;;23.00;99.90;;;;;;5013193;28;20962;-91
2023/05/22 11:27:13;;;;;;;17.73;12.68;;;23.10;99.90;;;;;;5028390;28;20064;-92
2023/05/22 11:29:43;;;;;;;25.50;12.70;;;23.20;99.90;;;;;;5031176;28;20038;-92
2023/05/22 11:32:14;;;;;;;14.60;11.85;;;23.10;99.90;;;;;;5011935;28;20081;-92
2023/05/22 11:34:39;;;;;;;20.35;13.60;;;23.10;99.90;;;;;;5041362;28;20056;-91
2023/05/22 11:37:05;;;;;;;18.25;13.50;;;23.10;99.90;;;;;;5016690;28;20338;-92
2023/05/22 11:39:32;;;;;;;19.90;14.70;;;23.10;99.90;;;;;;5035396;28;20040;-92
2023/05/22 11:41:57;;;;;;;18.38;13.90;;;23.20;99.90;;;;;;5017348;28;20033;-91
2023/05/22 11:44:26;;;;;;;20.10;13.73;;;23.30;99.90;;;;;;5013894;28;20101;-91
2023/05/22 11:46:53;;;;;;;16.10;13.75;;;23.50;99.90;;;;;;5016860;28;20040;-92
2023/05/22 11:49:22;;;;;;;20.88;14.38;;;23.60;99.90;;;;;;5013280;28;20046;-92
2023/05/22 11:51:49;;;;;;;22.00;15.07;;;23.70;99.90;;;;;;5034602;28;20038;-92
2023/05/22 11:54:18;;;;;;;23.17;16.75;;;23.80;99.90;;;;;;5012843;28;20120;-91
2023/05/22 11:56:45;;;;;;;19.88;14.63;;;24.00;99.90;;;;;;4988379;28;20045;-91
2023/05/22 11:59:11;;;;;;;20.98;14.50;;;24.10;99.90;;;;;;5038011;28;20043;-91
2023/05/22 12:01:36;;;;;;;18.92;16.30;;;24.20;99.90;;;;;;5018015;28;20116;-91
2023/05/22 12:04:03;;;;;;;20.58;17.17;;;24.20;99.90;;;;;;5020669;28;20434;-92
2023/05/22 12:06:32;;;;;;;16.65;14.27;;;24.30;99.90;;;;;;5017754;28;20034;-91
2023/05/22 12:08:59;;;;;;;21.33;16.10;;;24.30;99.90;;;;;;5029096;28;20048;-92
2023/05/22 12:11:26;;;;;;;21.95;17.27;;;24.50;99.90;;;;;;5033272;28;20046;-91
2023/05/22 12:14:02;;;;;;;19.88;16.23;;;24.50;99.90;;;;;;5029576;28;20041;-91
2023/05/22 12:16:36;;;;;;;21.90;17.95;;;24.70;99.90;;;;;;5033000;28;20052;-91
2023/05/22 12:19:10;;;;;;;20.42;16.83;;;24.80;99.90;;;;;;5020662;28;20040;-91
2023/05/22 12:21:40;;;;;;;20.73;16.02;;;24.90;99.90;;;;;;5037169;28;20037;-91
2023/05/22 12:24:07;;;;;;;19.58;16.13;;;24.90;99.90;;;;;;5041425;28;20079;-91
2023/05/22 12:26:33;;;;;;;20.80;17.10;;;25.10;99.90;;;;;;5014149;28;20076;-91
2023/05/22 12:28:59;;;;;;;23.73;17.42;;;25.20;99.90;;;;;;5022277;28;20040;-90
2023/05/22 12:31:25;;;;;;;19.55;17.45;;;25.30;99.90;;;;;;5019613;28;20041;-91
2023/05/22 12:33:57;;;;;;;20.73;17.30;;;25.30;99.90;;;;;;5035118;28;20036;-91